Time;durP1;ratioP1;P1;durP2;ratioP2;P2;SDS_P1;SDS_P2;PMS_P1;PMS_P2;Temp;Humidity;BMP_temperature;BMP_pressure;BME280_temperature;BME280_humidity;BME280_pressure;Samples;Min_cycle;Max_cycle;Signal;HPM_P1;HPM_P2
2023/11/08 00:01:26;;;;;;;1.83;1.20;;;;;;;9.63;67.23;95369.03;6169455;23;20183;-85
2023/11/08 00:03:53;;;;;;;1.40;1.30;;;;;;;9.67;66.92;95378.00;6168224;23;20199;-84
2023/11/08 00:06:19;;;;;;;1.70;1.10;;;;;;;9.68;67.12;95371.09;6169495;23;20179;-84
2023/11/08 00:08:48;;;;;;;2.67;1.23;;;;;;;9.57;67.41;95390.31;6170220;23;20179;-84
2023/11/08 00:11:15;;;;;;;3.93;1.40;;;;;;;9.54;67.60;95395.81;6169213;23;20209;-85
2023/11/08 00:13:43;;;;;;;1.60;1.30;;;;;;;9.57;67.45;95397.22;6169857;23;20198;-84
2023/11/08 00:16:09;;;;;;;1.90;1.40;;;;;;;9.60;68.00;95407.97;6170337;23;20179;-84
2023/11/08 00:18:37;;;;;;;2.53;1.20;;;;;;;9.61;67.98;95414.69;6168549;23;20186;-85
2023/11/08 00:21:05;;;;;;;1.40;1.30;;;;;;;9.60;68.01;95420.81;6169654;23;20194;-85
2023/11/08 00:23:32;;;;;;;1.50;1.30;;;;;;;9.62;67.56;95415.50;6168816;23;20199;-84
2023/11/08 00:25:58;;;;;;;1.53;1.40;;;;;;;9.61;67.97;95427.56;6170327;23;20189;-85
2023/11/08 00:28:24;;;;;;;1.67;1.40;;;;;;;9.59;68.30;95437.22;6169564;23;20179;-84
2023/11/08 00:30:52;;;;;;;1.90;1.30;;;;;;;9.63;68.24;95440.19;6170079;23;20178;-85
2023/11/08 00:33:19;;;;;;;2.50;1.20;;;;;;;9.59;67.88;95447.50;6168910;23;20198;-85
2023/11/08 00:35:46;;;;;;;4.13;1.50;;;;;;;9.51;68.09;95447.53;6168393;23;20238;-85
2023/11/08 00:38:13;;;;;;;1.60;1.27;;;;;;;9.31;69.06;95462.63;6167402;23;20175;-84
2023/11/08 00:40:39;;;;;;;2.00;1.30;;;;;;;9.34;69.03;95487.19;6169421;23;20202;-85
2023/11/08 00:43:06;;;;;;;2.20;1.30;;;;;;;9.26;69.34;95488.03;6170471;23;20682;-84
2023/11/08 00:45:34;;;;;;;1.57;1.30;;;;;;;9.22;69.26;95491.13;6170466;23;20189;-84
2023/11/08 00:48:01;;;;;;;2.27;1.20;;;;;;;9.24;69.31;95491.72;6170424;23;20194;-84
2023/11/08 00:50:29;;;;;;;1.30;1.20;;;;;;;9.12;69.49;95503.38;6170229;23;20214;-85
2023/11/08 00:52:58;;;;;;;1.70;1.27;;;;;;;9.10;69.75;95505.31;6170247;23;20213;-85
2023/11/08 00:55:24;;;;;;;2.00;1.20;;;;;;;9.17;69.51;95503.66;6170863;23;20179;-84
2023/11/08 00:57:51;;;;;;;1.33;1.20;;;;;;;9.19;69.80;95496.59;6170668;23;20189;-84
2023/11/08 01:00:18;;;;;;;1.57;1.20;;;;;;;9.15;69.35;95490.19;6171127;23;20568;-85
2023/11/08 01:02:46;;;;;;;2.00;1.10;;;;;;;9.04;69.80;95506.78;6170783;23;20264;-84
2023/11/08 01:05:13;;;;;;;2.10;1.23;;;;;;;9.06;69.97;95504.03;6171393;23;20186;-84
2023/11/08 01:07:39;;;;;;;1.43;1.23;;;;;;;9.10;69.67;95506.09;6169678;23;20179;-85
2023/11/08 01:10:08;;;;;;;1.77;1.40;;;;;;;9.09;69.74;95509.63;6171465;23;20171;-84
2023/11/08 01:12:34;;;;;;;2.60;1.37;;;;;;;9.08;69.64;95499.53;6169789;23;20178;-84
2023/11/08 01:15:01;;;;;;;2.07;1.10;;;;;;;9.08;69.76;95495.19;6171868;23;20203;-84
2023/11/08 01:17:28;;;;;;;1.27;1.17;;;;;;;9.01;69.87;95494.28;6170473;23;20181;-85
2023/11/08 01:19:54;;;;;;;2.97;1.30;;;;;;;8.92;69.98;95498.66;6170640;23;20461;-84
2023/11/08 01:22:20;;;;;;;2.20;1.30;;;;;;;8.92;69.82;95497.84;6169530;23;20189;-84
2023/11/08 01:24:48;;;;;;;1.10;1.00;;;;;;;8.96;69.98;95501.69;6168564;23;20222;-84
2023/11/08 01:27:15;;;;;;;4.57;1.17;;;;;;;9.04;69.67;95496.53;6169937;23;20205;-84
2023/11/08 01:29:42;;;;;;;2.30;1.27;;;;;;;9.03;69.43;95482.09;6169741;23;20175;-82
2023/11/08 01:32:08;;;;;;;1.77;1.17;;;;;;;9.00;69.04;95479.84;6169618;23;20185;-84
2023/11/08 01:34:35;;;;;;;2.20;1.40;;;;;;;8.92;69.61;95469.59;6169823;23;20194;-84
2023/11/08 01:37:01;;;;;;;4.37;1.33;;;;;;;8.94;69.69;95459.97;6169434;23;20193;-84
2023/11/08 01:39:27;;;;;;;1.63;0.97;;;;;;;8.93;69.60;95463.50;6169830;23;20206;-85
2023/11/08 01:41:55;;;;;;;2.27;1.10;;;;;;;8.91;69.41;95466.25;6170216;23;20179;-85
2023/11/08 01:44:23;;;;;;;2.60;0.90;;;;;;;8.88;69.09;95458.88;6169510;23;20570;-84
2023/11/08 01:46:52;;;;;;;2.67;1.20;;;;;;;8.93;69.26;95460.94;6168902;23;20230;-84
2023/11/08 01:49:19;;;;;;;4.17;1.37;;;;;;;8.89;69.43;95468.19;6170192;23;20185;-84
2023/11/08 01:51:46;;;;;;;0.83;0.80;;;;;;;8.91;69.48;95460.31;6169543;23;20642;-85
2023/11/08 01:54:14;;;;;;;2.83;1.10;;;;;;;8.88;69.34;95453.75;6169095;23;20206;-84
2023/11/08 01:56:44;;;;;;;1.93;1.10;;;;;;;8.84;69.23;95459.41;6169840;23;20183;-85
2023/11/08 01:59:12;;;;;;;1.60;1.00;;;;;;;8.81;69.54;95460.53;6169304;23;20599;-85
2023/11/08 02:01:40;;;;;;;1.50;1.00;;;;;;;8.84;69.36;95455.06;6169118;23;20179;-84
2023/11/08 02:04:07;;;;;;;2.03;1.00;;;;;;;8.80;69.41;95447.88;6168761;23;20206;-84
2023/11/08 02:06:33;;;;;;;2.10;1.10;;;;;;;8.73;69.48;95450.28;6168184;23;20184;-84
2023/11/08 02:09:01;;;;;;;3.07;1.07;;;;;;;8.76;69.49;95455.09;6169152;23;20681;-84
2023/11/08 02:11:27;;;;;;;1.20;0.93;;;;;;;8.79;69.11;95448.84;6168234;23;20193;-84
2023/11/08 02:13:54;;;;;;;1.17;1.00;;;;;;;8.83;68.94;95432.94;6169004;23;20229;-85
2023/11/08 02:16:20;;;;;;;1.20;0.80;;;;;;;8.86;68.83;95434.34;6168410;23;20506;-85
2023/11/08 02:18:49;;;;;;;1.27;1.00;;;;;;;8.86;68.60;95424.88;6168380;23;20185;-84
2023/11/08 02:21:16;;;;;;;2.07;1.10;;;;;;;8.89;68.51;95421.16;6169036;23;20221;-84
2023/11/08 02:23:42;;;;;;;1.63;1.10;;;;;;;8.82;68.72;95413.38;6167668;23;20198;-84
2023/11/08 02:26:10;;;;;;;2.33;0.90;;;;;;;8.78;68.50;95406.16;6168919;23;20179;-84
2023/11/08 02:28:38;;;;;;;1.40;0.90;;;;;;;8.78;68.40;95406.16;6167491;23;20242;-83
2023/11/08 02:31:04;;;;;;;2.00;0.90;;;;;;;8.81;68.08;95395.56;6167833;23;20189;-84
2023/11/08 02:33:30;;;;;;;1.47;0.97;;;;;;;8.84;68.17;95390.88;6168664;23;20272;-84
2023/11/08 02:36:00;;;;;;;1.53;1.10;;;;;;;8.91;67.99;95385.84;6168543;23;20698;-84
2023/11/08 02:38:27;;;;;;;3.30;1.33;;;;;;;8.86;67.34;95359.88;6166691;23;20246;-84
2023/11/08 02:40:53;;;;;;;1.30;0.90;;;;;;;8.85;67.37;95366.03;6167263;23;20187;-84
2023/11/08 02:43:22;;;;;;;2.00;0.87;;;;;;;8.86;67.27;95367.59;6167044;23;20238;-85
2023/11/08 02:45:48;;;;;;;1.33;0.90;;;;;;;8.81;67.24;95357.84;6166982;23;20175;-84
2023/11/08 02:48:15;;;;;;;1.23;0.80;;;;;;;8.76;67.15;95352.44;6167163;23;20181;-84
2023/11/08 02:50:41;;;;;;;4.00;1.07;;;;;;;8.82;66.83;95356.09;6165925;23;20535;-84
2023/11/08 02:53:08;;;;;;;1.23;0.83;;;;;;;8.78;66.72;95347.94;6165799;23;20213;-84
2023/11/08 02:55:36;;;;;;;1.67;0.90;;;;;;;8.72;66.95;95332.41;6166873;23;20179;-84
2023/11/08 02:58:03;;;;;;;1.70;1.03;;;;;;;8.72;66.82;95340.91;6166530;23;20178;-84
2023/11/08 03:00:31;;;;;;;3.67;1.10;;;;;;;8.76;67.05;95336.22;6165374;23;20194;-84
2023/11/08 03:02:57;;;;;;;1.43;1.00;;;;;;;8.83;66.69;95339.72;6166621;23;20179;-84
2023/11/08 03:05:24;;;;;;;1.63;1.10;;;;;;;8.76;66.74;95334.47;6165896;23;20222;-84
2023/11/08 03:07:53;;;;;;;1.87;0.87;;;;;;;8.80;66.80;95342.63;6165275;23;20178;-84
2023/11/08 03:10:20;;;;;;;1.67;1.13;;;;;;;8.81;66.64;95344.22;6164668;23;20250;-84
2023/11/08 03:12:47;;;;;;;2.07;1.10;;;;;;;8.83;66.56;95348.22;6166050;23;20185;-85
2023/11/08 03:15:16;;;;;;;2.50;0.97;;;;;;;8.77;66.65;95346.31;6165276;23;20178;-84
2023/11/08 03:17:45;;;;;;;1.20;0.87;;;;;;;8.71;66.98;95348.75;6163680;23;20183;-84
2023/11/08 03:20:13;;;;;;;1.40;0.80;;;;;;;8.66;67.15;95356.97;6164554;23;20202;-84
2023/11/08 03:22:40;;;;;;;0.70;0.70;;;;;;;8.58;67.11;95359.59;6165273;23;20179;-84
2023/11/08 03:25:07;;;;;;;2.40;0.97;;;;;;;8.64;67.26;95370.00;6163670;23;20202;-84
2023/11/08 03:27:33;;;;;;;3.20;0.90;;;;;;;8.67;67.18;95361.13;6165540;23;20274;-84
2023/11/08 03:29:59;;;;;;;1.87;0.70;;;;;;;8.66;66.78;95357.75;6164275;23;20518;-84
2023/11/08 03:32:27;;;;;;;2.30;1.20;;;;;;;8.62;67.17;95358.31;6163249;23;20262;-84
2023/11/08 03:34:55;;;;;;;1.40;1.00;;;;;;;8.60;66.76;95361.03;6164560;23;20210;-85
2023/11/08 03:37:23;;;;;;;1.60;0.80;;;;;;;8.59;67.10;95358.63;6164460;23;20178;-84
2023/11/08 03:39:50;;;;;;;1.60;1.00;;;;;;;8.57;66.85;95356.22;6164240;23;20233;-85
2023/11/08 03:42:16;;;;;;;1.30;0.90;;;;;;;8.55;66.96;95358.16;6165687;23;20178;-84
2023/11/08 03:44:43;;;;;;;2.20;0.80;;;;;;;8.58;67.02;95339.88;6164992;23;20202;-84
2023/11/08 03:47:10;;;;;;;3.47;1.10;;;;;;;8.56;66.88;95344.38;6163397;23;20185;-84
2023/11/08 03:49:36;;;;;;;1.80;0.93;;;;;;;8.58;66.57;95337.31;6162807;23;20182;-85
2023/11/08 03:52:04;;;;;;;1.57;1.00;;;;;;;8.68;66.31;95338.84;6163276;23;20184;-85
2023/11/08 03:54:31;;;;;;;1.93;0.67;;;;;;;8.72;66.37;95334.97;6162924;23;20205;-85
2023/11/08 03:56:57;;;;;;;2.77;0.90;;;;;;;8.65;65.94;95317.69;6164086;23;20179;-85
2023/11/08 03:59:23;;;;;;;0.97;0.80;;;;;;;8.64;66.20;95320.44;6163661;23;20182;-84
2023/11/08 04:01:50;;;;;;;2.30;0.80;;;;;;;8.64;65.92;95318.66;6163602;23;20318;-84
2023/11/08 04:04:16;;;;;;;1.17;0.90;;;;;;;8.61;65.66;95313.88;6162502;23;20205;-84
2023/11/08 04:06:43;;;;;;;1.07;0.73;;;;;;;8.48;66.12;95310.25;6164047;23;20190;-83
2023/11/08 04:09:14;;;;;;;1.00;0.80;;;;;;;8.41;66.01;95312.72;6163884;23;20179;-84
2023/11/08 04:11:40;;;;;;;0.97;0.70;;;;;;;8.37;66.09;95313.22;6164438;23;20186;-85
2023/11/08 04:14:07;;;;;;;1.70;1.17;;;;;;;8.35;65.92;95315.94;6164662;23;20206;-84
2023/11/08 04:16:38;;;;;;;1.33;0.70;;;;;;;8.45;65.85;95310.63;6163682;23;20225;-84
2023/11/08 04:19:05;;;;;;;1.90;0.90;;;;;;;8.52;65.58;95307.19;6165571;23;20170;-84
2023/11/08 04:21:31;;;;;;;3.30;0.83;;;;;;;8.58;65.39;95291.13;6162677;23;20205;-85
2023/11/08 04:23:58;;;;;;;1.63;1.00;;;;;;;8.57;64.71;95274.13;6162358;23;20199;-84
2023/11/08 04:26:26;;;;;;;1.70;1.00;;;;;;;8.56;64.33;95258.91;6162775;23;20190;-84
2023/11/08 04:28:52;;;;;;;1.00;0.73;;;;;;;8.54;64.13;95245.44;6163400;23;20179;-84
2023/11/08 04:31:19;;;;;;;1.20;0.70;;;;;;;8.49;64.16;95233.13;6162632;23;20253;-83
2023/11/08 04:33:45;;;;;;;1.07;0.90;;;;;;;8.51;64.15;95231.19;6163603;23;20222;-84
2023/11/08 04:36:12;;;;;;;1.47;0.93;;;;;;;8.50;64.12;95219.31;6163176;23;20179;-85
2023/11/08 04:38:39;;;;;;;0.90;0.70;;;;;;;8.49;64.30;95227.19;6163973;23;20185;-84
2023/11/08 04:41:07;;;;;;;2.47;1.00;;;;;;;8.55;64.24;95244.47;6163677;23;20286;-84
2023/11/08 04:43:35;;;;;;;1.60;0.70;;;;;;;8.54;63.89;95227.47;6163085;23;20199;-85
2023/11/08 04:46:02;;;;;;;1.30;0.73;;;;;;;8.47;63.78;95224.78;6163464;23;20163;-84
2023/11/08 04:48:28;;;;;;;1.20;0.90;;;;;;;8.46;64.04;95228.34;6164208;23;20181;-85
2023/11/08 04:50:55;;;;;;;4.93;1.17;;;;;;;8.51;63.93;95236.31;6164169;23;20345;-85
2023/11/08 04:53:21;;;;;;;1.13;0.80;;;;;;;8.49;63.49;95225.41;6162989;23;20229;-83
2023/11/08 04:55:48;;;;;;;1.27;0.90;;;;;;;8.42;63.96;95218.59;6164777;23;20178;-84
2023/11/08 04:58:14;;;;;;;1.27;0.90;;;;;;;8.44;63.76;95225.16;6165105;23;20179;-85
2023/11/08 05:00:42;;;;;;;0.80;0.70;;;;;;;8.50;63.78;95226.22;6164909;23;20199;-85
2023/11/08 05:03:08;;;;;;;1.33;0.90;;;;;;;8.50;63.83;95213.41;6164657;23;20672;-85
2023/11/08 05:05:35;;;;;;;1.77;0.80;;;;;;;8.52;63.47;95207.13;6162994;23;20175;-84
2023/11/08 05:08:01;;;;;;;2.40;1.00;;;;;;;8.47;63.26;95191.44;6163145;23;20175;-84
2023/11/08 05:10:27;;;;;;;1.27;1.00;;;;;;;8.44;63.27;95191.00;6161345;23;20182;-84
2023/11/08 05:12:55;;;;;;;1.30;0.90;;;;;;;8.48;63.51;95193.03;6162134;23;20202;-84
2023/11/08 05:15:23;;;;;;;1.87;1.00;;;;;;;8.52;62.98;95186.59;6162566;23;20179;-85
2023/11/08 05:17:51;;;;;;;2.53;0.80;;;;;;;8.47;62.94;95175.25;6163056;23;20187;-84
2023/11/08 05:20:18;;;;;;;3.33;1.40;;;;;;;8.47;62.98;95175.25;6162916;23;20179;-84
2023/11/08 05:22:47;;;;;;;2.07;0.90;;;;;;;8.39;63.05;95171.00;6162514;23;20258;-84
2023/11/08 05:25:14;;;;;;;2.07;1.00;;;;;;;8.35;62.84;95177.44;6161428;23;20612;-85
2023/11/08 05:27:40;;;;;;;2.20;0.80;;;;;;;8.30;63.11;95184.81;6163577;23;20179;-84
2023/11/08 05:30:09;;;;;;;0.97;0.87;;;;;;;8.32;63.23;95186.28;6164716;23;20175;-85
2023/11/08 05:32:35;;;;;;;1.00;0.80;;;;;;;8.34;63.11;95183.53;6165032;23;20206;-85
2023/11/08 05:35:03;;;;;;;0.93;0.83;;;;;;;8.42;62.94;95206.56;6165207;23;20206;-84
2023/11/08 05:37:30;;;;;;;1.97;0.90;;;;;;;8.52;62.71;95194.28;6165366;23;20254;-84
2023/11/08 05:39:58;;;;;;;1.53;0.80;;;;;;;8.55;63.12;95186.25;6165143;23;20183;-84
2023/11/08 05:42:26;;;;;;;2.10;1.03;;;;;;;8.58;62.98;95182.56;6165107;23;20215;-86
2023/11/08 05:44:54;;;;;;;1.17;0.80;;;;;;;8.61;62.49;95183.00;6163957;23;20734;-86
2023/11/08 05:47:21;;;;;;;2.00;1.00;;;;;;;8.59;62.32;95172.13;6162665;23;20271;-84
2023/11/08 05:49:49;;;;;;;0.90;0.90;;;;;;;8.53;62.75;95172.81;6163744;23;20207;-85
2023/11/08 05:52:18;;;;;;;3.03;1.63;;;;;;;8.53;62.74;95195.09;6159489;23;20174;-84
2023/11/08 05:54:44;;;;;;;3.00;1.33;;;;;;;8.53;63.24;95190.75;6164960;23;20199;-85
2023/11/08 05:57:11;;;;;;;1.90;1.37;;;;;;;8.59;62.85;95199.53;6162858;23;20196;-84
2023/11/08 05:59:37;;;;;;;3.23;0.90;;;;;;;8.59;62.95;95184.94;6162465;23;20197;-85
2023/11/08 06:02:07;;;;;;;1.43;0.80;;;;;;;8.60;62.65;95176.28;6163814;23;20495;-84
2023/11/08 06:04:34;;;;;;;2.97;1.10;;;;;;;8.63;62.69;95186.19;6164014;23;20211;-85
2023/11/08 06:07:00;;;;;;;2.43;1.00;;;;;;;8.68;62.93;95198.47;6163401;23;20178;-84
2023/11/08 06:09:28;;;;;;;1.80;1.00;;;;;;;8.70;62.96;95216.28;6164221;23;20217;-84
2023/11/08 06:11:55;;;;;;;1.50;1.03;;;;;;;8.66;62.62;95203.78;6164064;23;20445;-84
2023/11/08 06:14:21;;;;;;;5.03;1.10;;;;;;;8.68;62.84;95203.63;6162380;23;20225;-84
2023/11/08 06:16:48;;;;;;;2.17;1.00;;;;;;;8.68;62.86;95205.38;6163739;23;20511;-85
2023/11/08 06:19:15;;;;;;;2.63;1.07;;;;;;;8.62;62.60;95220.53;6164615;23;20181;-85
2023/11/08 06:21:41;;;;;;;2.80;1.03;;;;;;;8.57;62.75;95227.94;6164462;23;20219;-84
2023/11/08 06:24:08;;;;;;;1.10;1.00;;;;;;;8.52;63.05;95237.91;6163629;23;20205;-84
2023/11/08 06:26:36;;;;;;;1.43;0.93;;;;;;;8.58;63.04;95247.50;6164097;23;20179;-84
2023/11/08 06:29:03;;;;;;;8.10;1.00;;;;;;;8.62;63.17;95242.81;6163163;23;20341;-84
2023/11/08 06:31:34;;;;;;;4.63;1.20;;;;;;;8.68;63.19;95249.81;6162755;23;20405;-85
2023/11/08 06:34:01;;;;;;;1.77;0.90;;;;;;;8.66;63.00;95241.47;6164103;23;20191;-84
2023/11/08 06:36:28;;;;;;;2.83;1.20;;;;;;;8.63;63.26;95255.47;6162522;23;20182;-84
2023/11/08 06:38:54;;;;;;;2.90;1.10;;;;;;;8.66;64.13;95292.81;6163047;23;20178;-84
2023/11/08 06:41:22;;;;;;;1.83;1.20;;;;;;;8.66;63.79;95310.78;6163206;23;20205;-84
2023/11/08 06:43:49;;;;;;;2.43;1.20;;;;;;;8.74;63.35;95279.13;6163489;23;20216;-85
2023/11/08 06:46:18;;;;;;;2.13;1.10;;;;;;;8.72;63.27;95263.91;6163674;23;20179;-84
2023/11/08 06:48:46;;;;;;;3.20;1.43;;;;;;;8.74;63.32;95272.22;6164569;23;20178;-83
2023/11/08 06:51:12;;;;;;;3.67;1.50;;;;;;;8.78;63.37;95268.34;6163405;23;20179;-84
2023/11/08 06:53:39;;;;;;;0.83;0.83;;;;;;;8.75;62.80;95258.44;6163832;23;20206;-84
2023/11/08 06:56:07;;;;;;;0.90;0.90;;;;;;;8.77;62.74;95256.50;6163402;23;20179;-85
2023/11/08 06:58:33;;;;;;;3.60;1.07;;;;;;;8.75;63.22;95263.56;6161304;23;20183;-84
2023/11/08 07:01:05;;;;;;;1.03;0.83;;;;;;;8.80;63.25;95271.56;6163559;23;20187;-84
2023/11/08 07:03:31;;;;;;;1.53;1.00;;;;;;;8.81;62.80;95264.66;6162103;23;20278;-84
2023/11/08 07:05:57;;;;;;;1.63;0.90;;;;;;;8.93;62.96;95263.25;6162251;23;20179;-84
2023/11/08 07:08:24;;;;;;;0.90;0.83;;;;;;;8.96;62.54;95262.91;6162688;23;20183;-84
2023/11/08 07:10:51;;;;;;;2.57;0.90;;;;;;;9.00;62.47;95256.44;6162300;23;20550;-84
2023/11/08 07:13:18;;;;;;;3.27;1.07;;;;;;;9.02;62.60;95258.84;6160831;23;20198;-84
2023/11/08 07:15:44;;;;;;;3.77;1.33;;;;;;;9.10;62.14;95256.19;6161853;23;20199;-85
2023/11/08 07:18:14;;;;;;;6.90;1.30;;;;;;;9.14;62.04;95255.66;6160562;23;20181;-84
2023/11/08 07:20:40;;;;;;;1.93;0.90;;;;;;;9.23;62.15;95239.22;6160572;23;20178;-84
2023/11/08 07:23:08;;;;;;;2.73;1.50;;;;;;;9.34;61.96;95253.38;6160648;23;20203;-85
2023/11/08 07:25:35;;;;;;;2.87;1.20;;;;;;;9.37;61.73;95232.47;6160281;23;20175;-85
2023/11/08 07:28:02;;;;;;;3.27;1.23;;;;;;;9.42;61.33;95213.97;6159754;23;20186;-85
2023/11/08 07:30:28;;;;;;;1.10;1.00;;;;;;;9.38;60.97;95198.09;6159895;23;20529;-85
2023/11/08 07:32:55;;;;;;;3.83;1.37;;;;;;;9.42;61.04;95201.13;6160122;23;20171;-85
2023/11/08 07:35:23;;;;;;;4.80;1.10;;;;;;;9.41;61.05;95200.31;6159123;23;20178;-85
2023/11/08 07:37:49;;;;;;;1.90;1.10;;;;;;;9.39;60.61;95173.22;6160798;23;20179;-84
2023/11/08 07:40:16;;;;;;;2.60;1.20;;;;;;;9.48;60.88;95184.97;6161469;23;20175;-85
2023/11/08 07:42:42;;;;;;;2.03;1.00;;;;;;;9.49;60.60;95160.88;6160902;23;20196;-84
2023/11/08 07:45:10;;;;;;;4.73;1.17;;;;;;;9.56;60.88;95180.53;6162314;23;20195;-85
2023/11/08 07:47:36;;;;;;;2.80;1.50;;;;;;;9.63;60.34;95154.91;6159316;23;20178;-83
2023/11/08 07:50:05;;;;;;;2.53;1.20;;;;;;;9.53;59.83;95121.78;6158848;23;20179;-85
2023/11/08 07:52:33;;;;;;;1.93;0.90;;;;;;;9.55;59.82;95126.75;6157581;23;20179;-85
2023/11/08 07:55:00;;;;;;;4.33;1.10;;;;;;;9.59;60.09;95138.28;6158886;23;20206;-84
2023/11/08 07:57:27;;;;;;;2.47;1.00;;;;;;;9.58;59.67;95109.19;6158466;23;20484;-83
2023/11/08 07:59:53;;;;;;;4.73;1.20;;;;;;;9.64;59.85;95121.31;6158218;23;20178;-84
2023/11/08 08:02:19;;;;;;;2.10;1.20;;;;;;;9.65;59.27;95109.25;6156340;23;20202;-85
2023/11/08 08:04:46;;;;;;;7.67;1.30;;;;;;;9.68;59.61;95116.59;6157121;23;20205;-85
2023/11/08 08:07:12;;;;;;;2.00;1.13;;;;;;;9.71;59.34;95123.97;6157384;23;20185;-85
2023/11/08 08:09:40;;;;;;;0.80;0.80;;;;;;;9.64;59.46;95115.38;6157732;23;20175;-85
2023/11/08 08:12:07;;;;;;;2.43;1.13;;;;;;;9.57;59.61;95115.31;6157562;23;20171;-85
2023/11/08 08:14:35;;;;;;;1.43;1.00;;;;;;;9.64;59.57;95113.59;6156791;23;20198;-84
2023/11/08 08:17:02;;;;;;;1.03;0.87;;;;;;;9.66;59.05;95101.34;6157133;23;20178;-85
2023/11/08 08:19:29;;;;;;;1.67;0.80;;;;;;;9.70;59.13;95105.16;6156580;23;20233;-85
2023/11/08 08:21:58;;;;;;;1.93;0.90;;;;;;;9.66;58.84;95087.72;6157366;23;20199;-84
2023/11/08 08:24:25;;;;;;;2.30;0.90;;;;;;;9.71;59.16;95108.53;6157132;23;20562;-85
2023/11/08 08:26:52;;;;;;;3.10;1.00;;;;;;;9.81;58.79;95101.31;6158709;23;20181;-85
2023/11/08 08:29:22;;;;;;;2.47;0.83;;;;;;;9.79;58.53;95074.22;6158697;23;20174;-84
2023/11/08 08:31:48;;;;;;;1.80;0.90;;;;;;;9.87;58.81;95092.06;6159523;23;20580;-85
2023/11/08 08:34:14;;;;;;;2.23;1.03;;;;;;;9.78;58.31;95063.13;6158634;23;20526;-84
2023/11/08 08:36:44;;;;;;;2.10;0.90;;;;;;;9.83;58.97;95081.34;6158665;23;20647;-84
2023/11/08 08:39:15;;;;;;;2.60;1.00;;;;;;;9.90;58.58;95092.50;6158283;23;20186;-84
2023/11/08 08:41:43;;;;;;;2.93;0.90;;;;;;;9.94;58.61;95088.59;6157124;23;20195;-85
2023/11/08 08:44:11;;;;;;;1.30;1.00;;;;;;;10.09;58.59;95109.09;6157271;23;20218;-84
2023/11/08 08:46:38;;;;;;;1.83;0.80;;;;;;;10.03;58.13;95074.59;6157526;23;20179;-85
2023/11/08 08:49:05;;;;;;;3.47;0.90;;;;;;;9.99;58.41;95082.91;6158049;23;20190;-85
2023/11/08 08:51:32;;;;;;;1.23;0.70;;;;;;;10.16;58.09;95075.72;6157564;23;20258;-85
2023/11/08 08:53:58;;;;;;;2.63;0.90;;;;;;;10.30;58.09;95070.50;6156929;23;20194;-85
2023/11/08 08:56:25;;;;;;;3.00;2.20;;;;;;;10.57;57.22;95048.31;6155587;23;20186;-85
2023/11/08 08:58:51;;;;;;;6.07;1.30;;;;;;;10.94;56.78;95041.16;6155987;23;20175;-85
2023/11/08 09:01:21;;;;;;;1.83;0.93;;;;;;;10.98;56.19;94996.78;6155212;23;20179;-84
2023/11/08 09:03:49;;;;;;;2.93;0.90;;;;;;;11.14;56.22;95011.13;6157312;23;20198;-84
2023/11/08 09:06:18;;;;;;;1.10;1.00;;;;;;;11.29;56.29;95013.53;6158685;23;20179;-84
2023/11/08 09:08:44;;;;;;;2.90;0.80;;;;;;;11.19;55.98;94985.56;6158562;23;20178;-85
2023/11/08 09:11:11;;;;;;;2.87;0.90;;;;;;;11.03;55.71;94968.66;6158543;23;20175;-84
2023/11/08 09:13:37;;;;;;;1.90;0.90;;;;;;;11.15;55.92;94999.84;6159450;23;20674;-85
2023/11/08 09:16:07;;;;;;;2.27;1.00;;;;;;;11.29;56.08;95011.75;6159518;23;20179;-85
2023/11/08 09:18:35;;;;;;;4.10;1.00;;;;;;;11.41;55.70;94989.56;6158114;23;20175;-85
2023/11/08 09:21:01;;;;;;;1.87;1.03;;;;;;;11.32;54.83;94946.16;6158822;23;20558;-85
2023/11/08 09:23:28;;;;;;;2.03;1.10;;;;;;;11.32;55.21;94949.53;6157821;23;20259;-84
2023/11/08 09:25:54;;;;;;;2.63;1.03;;;;;;;11.23;55.22;94962.78;6158515;23;20182;-84
2023/11/08 09:28:21;;;;;;;2.77;1.03;;;;;;;11.08;55.61;94971.47;6156698;23;20179;-84
2023/11/08 09:30:48;;;;;;;2.67;0.90;;;;;;;10.98;55.90;94996.78;6158161;23;20177;-84
2023/11/08 09:33:14;;;;;;;1.00;0.80;;;;;;;10.96;56.34;95003.13;6157457;23;20621;-84
2023/11/08 09:35:42;;;;;;;0.80;0.70;;;;;;;10.98;56.10;94998.56;6156950;23;20179;-84
2023/11/08 09:38:09;;;;;;;1.10;0.90;;;;;;;11.01;55.77;94998.97;6160141;23;20185;-85
2023/11/08 09:40:36;;;;;;;2.60;1.23;;;;;;;11.12;59.02;95154.78;6157255;23;20183;-84
2023/11/08 09:43:05;;;;;;;2.20;1.30;;;;;;;11.06;56.88;95060.22;6156680;23;20205;-84
2023/11/08 09:45:32;;;;;;;3.30;1.30;;;;;;;10.95;55.99;95010.06;6157901;23;20186;-86
2023/11/08 09:47:59;;;;;;;2.13;0.93;;;;;;;11.00;56.24;95010.25;6156419;23;20178;-84
2023/11/08 09:50:27;;;;;;;3.80;2.33;;;;;;;10.98;56.52;95032.03;6155263;23;20182;-84
2023/11/08 09:52:55;;;;;;;5.57;1.87;;;;;;;11.01;56.78;95032.47;6154622;23;20186;-85
2023/11/08 09:55:22;;;;;;;3.40;1.97;;;;;;;11.03;56.22;95012.47;6153930;23;20186;-85
2023/11/08 09:57:50;;;;;;;1.87;0.83;;;;;;;11.00;56.10;95004.31;6154704;23;20179;-84
2023/11/08 10:00:20;;;;;;;3.00;1.10;;;;;;;10.97;55.84;94997.78;6153359;23;20185;-84
2023/11/08 10:02:46;;;;;;;1.70;0.90;;;;;;;10.89;55.93;94982.50;6153486;23;20198;-84
2023/11/08 10:05:13;;;;;;;1.07;0.97;;;;;;;10.90;56.30;95012.41;6152907;23;20195;-85
2023/11/08 10:07:41;;;;;;;2.27;0.90;;;;;;;11.05;56.26;95004.53;6152811;23;20179;-84
2023/11/08 10:10:09;;;;;;;1.30;0.90;;;;;;;11.25;55.97;95007.19;6152967;23;20218;-84
2023/11/08 10:12:36;;;;;;;2.07;1.00;;;;;;;11.35;56.22;95013.53;6152064;23;20174;-84
2023/11/08 10:15:06;;;;;;;2.23;1.03;;;;;;;11.53;55.90;95001.91;6151656;23;20233;-85
2023/11/08 10:17:36;;;;;;;1.70;1.03;;;;;;;11.62;55.86;94998.13;6152684;23;20166;-85
2023/11/08 10:20:07;;;;;;;1.50;0.90;;;;;;;11.70;55.10;94972.16;6153567;23;20174;-84
2023/11/08 10:22:33;;;;;;;6.37;2.93;;;;;;;11.87;54.99;94952.72;6152908;23;20191;-85
2023/11/08 10:25:02;;;;;;;3.43;1.47;;;;;;;11.99;54.69;94934.84;6152409;23;20195;-84
2023/11/08 10:27:31;;;;;;;2.50;1.10;;;;;;;11.95;54.72;94929.28;6152997;23;20179;-84
2023/11/08 10:30:14;;;;;;;0.93;0.87;;;;;;;11.83;54.39;94899.16;6152842;23;20178;-85
2023/11/08 10:32:41;;;;;;;2.33;1.10;;;;;;;11.87;54.45;94893.41;6152385;23;20159;-85
2023/11/08 10:35:15;;;;;;;4.83;1.20;;;;;;;12.01;54.13;94892.38;6151927;23;20202;-84
2023/11/08 10:37:44;;;;;;;1.70;0.90;;;;;;;11.99;53.52;94862.63;6156480;23;20257;-85
2023/11/08 10:40:13;;;;;;;2.20;1.00;;;;;;;12.01;54.12;94886.44;6153914;23;20171;-85
2023/11/08 10:42:42;;;;;;;1.87;1.00;;;;;;;12.23;54.09;94879.22;6152153;23;20198;-85
2023/11/08 10:45:11;;;;;;;2.40;1.07;;;;;;;12.17;53.32;94826.63;6152607;23;20199;-85
2023/11/08 10:47:39;;;;;;;1.73;0.87;;;;;;;12.24;53.97;94860.16;6151684;23;20634;-84
2023/11/08 10:50:06;;;;;;;1.20;0.90;;;;;;;12.36;53.19;94828.34;6155174;23;20183;-85
2023/11/08 10:52:33;;;;;;;2.57;0.93;;;;;;;12.45;52.74;94792.75;6154520;23;20247;-85
2023/11/08 10:55:01;;;;;;;1.63;0.90;;;;;;;12.52;52.33;94767.69;6152178;23;20199;-84
2023/11/08 10:57:30;;;;;;;1.73;1.10;;;;;;;12.71;52.45;94787.41;6152644;23;20266;-84
2023/11/08 11:00:00;;;;;;;2.10;0.93;;;;;;;12.49;52.46;94764.75;6152846;23;20197;-85
2023/11/08 11:02:32;;;;;;;2.33;0.87;;;;;;;12.39;52.59;94768.56;6153010;23;20183;-84
2023/11/08 11:05:03;;;;;;;2.57;1.17;;;;;;;12.44;52.48;94752.44;6152941;23;20195;-85
2023/11/08 11:07:31;;;;;;;5.23;1.20;;;;;;;12.40;52.33;94743.53;6153505;23;20167;-84
2023/11/08 11:09:58;;;;;;;2.40;0.90;;;;;;;12.40;52.59;94770.13;6155409;23;20181;-84
2023/11/08 11:12:33;;;;;;;2.13;1.23;;;;;;;12.66;59.52;95102.38;6154401;23;20182;-83
2023/11/08 11:15:08;;;;;;;8.47;1.93;;;;;;;13.19;58.45;95164.31;6153199;23;20198;-82
2023/11/08 11:17:41;;;;;;;4.20;1.30;;;;;;;13.25;52.17;94783.47;6152978;23;20159;-84
2023/11/08 11:20:12;;;;;;;1.37;0.90;;;;;;;12.81;51.94;94724.97;6152493;23;20182;-83
2023/11/08 11:22:41;;;;;;;3.03;1.23;;;;;;;12.73;56.68;94962.84;6151594;23;20318;-84
2023/11/08 11:25:10;;;;;;;8.33;1.57;;;;;;;13.17;59.06;95160.31;6149524;23;20195;-85
2023/11/08 11:27:47;;;;;;;2.57;1.00;;;;;;;13.30;53.84;94892.19;6150641;23;20175;-84
2023/11/08 11:30:28;;;;;;;1.47;1.00;;;;;;;13.10;51.84;94739.81;6153182;23;20610;-83
2023/11/08 11:32:58;;;;;;;0.70;0.70;;;;;;;12.95;52.33;94729.03;6152696;23;20432;-83
2023/11/08 11:35:56;;;;;;;1.63;1.10;;;;;;;12.99;52.34;94743.09;6154389;23;20203;-83
2023/11/08 11:38:27;;;;;;;3.37;0.90;;;;;;;13.14;52.06;94743.56;6155749;23;20163;-83
2023/11/08 11:41:20;;;;;;;1.30;0.80;;;;;;;13.11;51.18;94684.53;6152880;23;20175;-83